の過去48時間の天気

Eureka

現在時刻: 9/15 22:08 CDT (9/16 03:08 UTC) 以下の時間は現地時間です。

過去48時間のMETAR気象情報
時間 風向 風速(m/s) 視程 気温(℃) 湿度(%) 気圧(hPa) 天気現象
15 21:00 東南東 2 10km以上 -6 93 1019
15 20:00 東南東 2 10km以上 -5 93 1018.6
15 19:00 東南東 2 10km以上 -5 93 1018.2
15 18:00 南東 3 10km以上 -4 86 1017.7
15 17:00 1 10km以上 -3 80 1017.1
15 16:00 北東 2 10km以上 -2 80 1016.6
15 15:00 不定 1 10km以上 -3 80 1016.1
CWEU 160200Z 12004KT 15SM FEW012 FEW025 SCT120 BKN160 M06/M07 A3008 RMK SC1SC1AC3AC3 SC TR SLP190
CWEU 160100Z 11004KT 15SM FEW010 SCT018 BKN170 M05/M06 A3007 RMK SC1SC2AC2 SLP186
CWEU 160000Z 12004KT 15SM FEW012 FEW018 FEW040 SCT220 M05/M06 A3006 RMK SC1SC2SC1CI2 SC TR SC TR SLP182
CWEU 152300Z 14005KT 15SM FEW008 SCT013 SCT025 SCT170 M04/M06 A3005 RMK SF1SC2SC1AC1 AC TR SLP177
CWEU 152200Z 09002KT 15SM FEW013 SCT018 BKN025 M03/M06 A3003 RMK SC1SC2SC2 SLP171
CWEU 152100Z 04004KT 15SM FEW012 SCT018 BKN025 M02/M05 A3001 RMK SC2SC1SC3 SLP166
CWEU 152000Z VRB02KT 10SM FEW008 SCT014 BKN025 BKN170 BKN220 M03/M06 A3000 RMK SF1SC2SC3AC1CI1 CI TR SLP161